Time;durP1;ratioP1;P1;durP2;ratioP2;P2;SDS_P1;SDS_P2;PMS_P1;PMS_P2;Temp;Humidity;BMP_temperature;BMP_pressure;BME280_temperature;BME280_humidity;BME280_pressure;Samples;Min_cycle;Max_cycle;Signal;HPM_P1;HPM_P2
2021/12/30 00:01:06;;;;;;;4.63;3.88;;;;;;;;;;5043911;28;20090;-58
2021/12/30 00:03:32;;;;;;;3.60;3.30;;;;;;;;;;5046159;28;20025;-58
2021/12/30 00:05:58;;;;;;;3.20;2.90;;;;;;;;;;5040280;28;20082;-59
2021/12/30 00:08:23;;;;;;;3.33;3.03;;;;;;;;;;5042351;28;20372;-59
2021/12/30 00:10:50;;;;;;;3.60;3.30;;;;;;;;;;5042693;28;20035;-59
2021/12/30 00:13:16;;;;;;;3.25;2.95;;;;;;;;;;5040668;28;20041;-58
2021/12/30 00:15:41;;;;;;;3.35;3.05;;;;;;;;;;5045222;28;20090;-58
2021/12/30 00:18:08;;;;;;;3.22;2.92;;;;;;;;;;5042660;28;20044;-58
2021/12/30 00:20:33;;;;;;;3.47;3.17;;;;;;;;;;5039619;28;20124;-59
2021/12/30 00:23:02;;;;;;;3.53;3.22;;;;;;;;;;5043826;28;20152;-59
2021/12/30 00:25:28;;;;;;;3.47;3.17;;;;;;;;;;5042200;28;20040;-59
2021/12/30 00:27:53;;;;;;;3.20;2.90;;;;;;;;;;5041418;28;20603;-59
2021/12/30 00:30:19;;;;;;;3.00;2.70;;;;;;;;;;5041217;28;20119;-59
2021/12/30 00:32:44;;;;;;;3.95;3.55;;;;;;;;;;5038875;28;20359;-59
2021/12/30 00:35:11;;;;;;;3.10;2.80;;;;;;;;;;5040583;28;20045;-59
2021/12/30 00:37:36;;;;;;;3.83;3.50;;;;;;;;;;5038022;28;20033;-59
2021/12/30 00:40:03;;;;;;;3.08;2.78;;;;;;;;;;5040764;28;20083;-59
2021/12/30 00:42:28;;;;;;;3.30;3.00;;;;;;;;;;5040348;28;20047;-59
2021/12/30 00:44:54;;;;;;;2.97;2.67;;;;;;;;;;5037979;28;20107;-59
2021/12/30 00:47:19;;;;;;;3.08;2.78;;;;;;;;;;5043420;28;20061;-58
2021/12/30 00:49:44;;;;;;;3.30;3.00;;;;;;;;;;5040009;28;20037;-61
2021/12/30 00:52:10;;;;;;;3.22;2.92;;;;;;;;;;5041527;28;20025;-59
2021/12/30 00:54:35;;;;;;;3.05;2.75;;;;;;;;;;5037413;28;20024;-59
2021/12/30 00:57:01;;;;;;;3.15;2.85;;;;;;;;;;5041034;28;20029;-59
2021/12/30 00:59:26;;;;;;;3.08;2.78;;;;;;;;;;5040357;28;20033;-58
2021/12/30 01:01:52;;;;;;;3.13;2.83;;;;;;;;;;5040522;28;20161;-58
2021/12/30 01:04:20;;;;;;;3.03;2.72;;;;;;;;;;5039214;28;20033;-58
2021/12/30 01:06:46;;;;;;;2.90;2.55;;;;;;;;;;5039905;28;20025;-58
2021/12/30 01:09:11;;;;;;;3.40;3.10;;;;;;;;;;5030586;28;20339;-59
2021/12/30 01:11:37;;;;;;;3.47;3.17;;;;;;;;;;5041606;28;20056;-58
2021/12/30 01:14:15;;;;;;;3.42;2.60;;;;;;;;;;5038299;28;20116;-58
2021/12/30 01:16:44;;;;;;;3.53;3.22;;;;;;;;;;5036352;28;20029;-59
2021/12/30 01:21:54;;;;;;;3.70;3.40;;;;;;;;;;5039193;28;20021;-58
2021/12/30 01:24:20;;;;;;;3.70;3.40;;;;;;;;;;5040273;28;20036;-58
2021/12/30 01:26:46;;;;;;;3.10;2.80;;;;;;;;;;5039300;28;20044;-58
2021/12/30 01:29:12;;;;;;;3.22;2.92;;;;;;;;;;5038616;28;20037;-59
2021/12/30 01:31:37;;;;;;;3.72;3.17;;;;;;;;;;5039274;28;20124;-58
2021/12/30 01:34:03;;;;;;;3.15;2.85;;;;;;;;;;5040102;28;20037;-59
2021/12/30 01:36:28;;;;;;;4.38;3.33;;;;;;;;;;5040172;28;20060;-58
2021/12/30 01:38:54;;;;;;;3.35;3.05;;;;;;;;;;5040452;28;20048;-59
2021/12/30 01:41:22;;;;;;;3.75;3.38;;;;;;;;;;5040881;28;20036;-59
2021/12/30 01:43:47;;;;;;;4.00;3.60;;;;;;;;;;5041100;28;20045;-58
2021/12/30 01:46:13;;;;;;;9.43;2.88;;;;;;;;;;5037914;28;20092;-58
2021/12/30 01:48:38;;;;;;;4.28;3.88;;;;;;;;;;5036788;28;20037;-58
2021/12/30 01:51:06;;;;;;;4.18;2.88;;;;;;;;;;5041631;28;20220;-58
2021/12/30 01:53:32;;;;;;;3.33;3.03;;;;;;;;;;5038244;28;20037;-58
2021/12/30 01:55:57;;;;;;;3.08;2.70;;;;;;;;;;5039254;28;20500;-58
2021/12/30 01:58:23;;;;;;;4.15;3.63;;;;;;;;;;5036820;28;20025;-58
2021/12/30 02:00:50;;;;;;;3.63;3.03;;;;;;;;;;5037679;28;20087;-58
2021/12/30 02:03:17;;;;;;;3.33;3.03;;;;;;;;;;5041551;28;20026;-58
2021/12/30 02:05:43;;;;;;;3.50;3.20;;;;;;;;;;5039106;28;20068;-58
2021/12/30 02:08:13;;;;;;;3.00;2.70;;;;;;;;;;5039215;28;20455;-58
2021/12/30 02:10:40;;;;;;;3.43;3.07;;;;;;;;;;5039596;28;20029;-58
2021/12/30 02:13:09;;;;;;;3.55;3.25;;;;;;;;;;5041418;28;20029;-58
2021/12/30 02:15:35;;;;;;;7.93;3.10;;;;;;;;;;5038886;28;20033;-58
2021/12/30 02:18:02;;;;;;;3.25;2.95;;;;;;;;;;5042185;28;20029;-58
2021/12/30 02:20:45;;;;;;;3.75;3.08;;;;;;;;;;5035973;28;20048;-58
2021/12/30 02:23:12;;;;;;;3.28;2.88;;;;;;;;;;5038736;28;20048;-58
2021/12/30 02:25:37;;;;;;;2.88;2.58;;;;;;;;;;5037509;28;20156;-58
2021/12/30 02:28:08;;;;;;;3.25;2.95;;;;;;;;;;5037339;28;20121;-57
2021/12/30 02:30:34;;;;;;;3.45;3.15;;;;;;;;;;5038853;28;20037;-58
2021/12/30 02:33:00;;;;;;;3.60;3.28;;;;;;;;;;5038700;28;20044;-57
2021/12/30 02:35:25;;;;;;;6.35;3.00;;;;;;;;;;5039824;28;20371;-58
2021/12/30 02:37:51;;;;;;;3.33;3.03;;;;;;;;;;5038859;28;20124;-58
2021/12/30 02:40:27;;;;;;;3.35;3.05;;;;;;;;;;5040256;28;20064;-58
2021/12/30 02:42:53;;;;;;;3.63;3.05;;;;;;;;;;5034089;28;20029;-58
2021/12/30 02:45:19;;;;;;;3.22;2.78;;;;;;;;;;5040406;28;20040;-58
2021/12/30 02:47:44;;;;;;;3.17;2.88;;;;;;;;;;5039937;28;20025;-58
2021/12/30 02:50:10;;;;;;;3.35;3.05;;;;;;;;;;5035313;28;20120;-58
2021/12/30 02:52:36;;;;;;;3.28;2.97;;;;;;;;;;5036458;28;20459;-59
2021/12/30 02:55:02;;;;;;;3.45;2.88;;;;;;;;;;5038372;28;20040;-59
2021/12/30 02:57:28;;;;;;;4.80;4.10;;;;;;;;;;5038815;28;20395;-58
2021/12/30 02:59:53;;;;;;;12.15;4.70;;;;;;;;;;5038223;28;20025;-58
2021/12/30 03:02:18;;;;;;;3.20;2.90;;;;;;;;;;5039195;28;20033;-58
2021/12/30 03:04:44;;;;;;;4.25;3.08;;;;;;;;;;5036751;28;20063;-58
2021/12/30 03:07:09;;;;;;;3.58;3.20;;;;;;;;;;5036804;28;20057;-58
2021/12/30 03:09:35;;;;;;;3.10;2.80;;;;;;;;;;5038237;28;20355;-58
2021/12/30 03:12:00;;;;;;;3.25;2.95;;;;;;;;;;5035692;28;20466;-58
2021/12/30 03:14:26;;;;;;;2.97;2.65;;;;;;;;;;5038366;28;20044;-58
2021/12/30 03:16:52;;;;;;;3.03;2.72;;;;;;;;;;5037605;28;20029;-58
2021/12/30 03:19:18;;;;;;;3.10;2.80;;;;;;;;;;5035017;28;20390;-59
2021/12/30 03:21:43;;;;;;;3.20;2.90;;;;;;;;;;5038555;28;20042;-58
2021/12/30 03:24:09;;;;;;;3.58;3.22;;;;;;;;;;5038941;28;20669;-59
2021/12/30 03:26:35;;;;;;;3.45;3.15;;;;;;;;;;5037644;28;20542;-60
2021/12/30 03:29:01;;;;;;;4.10;3.17;;;;;;;;;;5038379;28;20436;-58
2021/12/30 03:31:26;;;;;;;3.42;2.95;;;;;;;;;;5036902;28;20510;-59
2021/12/30 03:33:52;;;;;;;4.03;3.45;;;;;;;;;;5036592;28;20148;-59
2021/12/30 03:36:18;;;;;;;3.25;2.95;;;;;;;;;;5037233;28;20489;-59
2021/12/30 03:38:49;;;;;;;3.45;3.15;;;;;;;;;;5038348;28;20099;-59
2021/12/30 03:41:17;;;;;;;8.38;3.17;;;;;;;;;;5036856;28;20033;-59
2021/12/30 03:43:43;;;;;;;3.10;2.80;;;;;;;;;;5037943;28;20045;-59
2021/12/30 03:46:08;;;;;;;3.33;3.03;;;;;;;;;;5038023;28;20032;-59
2021/12/30 03:48:40;;;;;;;3.10;2.80;;;;;;;;;;5038818;28;20375;-59
2021/12/30 03:51:09;;;;;;;7.30;3.45;;;;;;;;;;5039655;28;20041;-59
2021/12/30 03:53:38;;;;;;;4.90;3.28;;;;;;;;;;5044667;28;20060;-59
2021/12/30 03:56:10;;;;;;;3.47;3.17;;;;;;;;;;5036065;28;20030;-58
2021/12/30 03:58:36;;;;;;;3.28;2.97;;;;;;;;;;5037555;28;20053;-59
2021/12/30 04:01:04;;;;;;;4.20;3.58;;;;;;;;;;5037081;28;20355;-59
2021/12/30 04:03:30;;;;;;;4.07;3.67;;;;;;;;;;5037087;28;20033;-59
2021/12/30 04:05:55;;;;;;;4.65;3.63;;;;;;;;;;5037673;28;20025;-59
2021/12/30 04:08:21;;;;;;;3.33;3.03;;;;;;;;;;5039563;28;20097;-59
2021/12/30 04:10:46;;;;;;;4.55;3.22;;;;;;;;;;5038331;28;20418;-59
2021/12/30 04:13:13;;;;;;;3.55;3.25;;;;;;;;;;5040422;28;20111;-59
2021/12/30 04:15:39;;;;;;;3.50;3.20;;;;;;;;;;5042734;28;20087;-59
2021/12/30 04:18:05;;;;;;;5.32;3.60;;;;;;;;;;5040751;28;20069;-59
2021/12/30 04:20:30;;;;;;;3.38;3.08;;;;;;;;;;5039925;28;20111;-59
2021/12/30 04:22:55;;;;;;;3.65;2.85;;;;;;;;;;5040165;28;20033;-59
2021/12/30 04:25:21;;;;;;;4.00;3.10;;;;;;;;;;5040289;28;20033;-59
2021/12/30 04:27:46;;;;;;;4.07;3.53;;;;;;;;;;5041647;28;20060;-59
2021/12/30 04:30:13;;;;;;;3.70;3.40;;;;;;;;;;5041462;28;20030;-62
2021/12/30 04:32:39;;;;;;;2.80;2.40;;;;;;;;;;5039912;28;20607;-59
2021/12/30 04:35:07;;;;;;;3.15;2.85;;;;;;;;;;5039410;28;20157;-59
2021/12/30 04:37:32;;;;;;;3.63;3.33;;;;;;;;;;5039237;28;20022;-59
2021/12/30 04:39:58;;;;;;;3.78;3.35;;;;;;;;;;5042122;28;20490;-58
2021/12/30 04:42:23;;;;;;;3.28;2.97;;;;;;;;;;5040198;28;20040;-59
2021/12/30 04:44:49;;;;;;;3.60;3.30;;;;;;;;;;5041965;28;20029;-59
2021/12/30 04:47:15;;;;;;;3.25;2.95;;;;;;;;;;5026604;28;20603;-59
2021/12/30 04:49:41;;;;;;;3.53;3.20;;;;;;;;;;5041164;28;20103;-60
2021/12/30 04:52:07;;;;;;;3.58;3.28;;;;;;;;;;5041204;28;20033;-59
2021/12/30 04:54:32;;;;;;;3.33;2.92;;;;;;;;;;5041352;28;20123;-59
2021/12/30 04:56:57;;;;;;;2.92;2.63;;;;;;;;;;5042782;28;20048;-59
2021/12/30 04:59:23;;;;;;;4.50;3.72;;;;;;;;;;5037701;28;20044;-59
2021/12/30 05:01:48;;;;;;;3.95;3.55;;;;;;;;;;5041255;28;20467;-59
2021/12/30 05:04:14;;;;;;;3.70;3.33;;;;;;;;;;5042903;28;20382;-59
2021/12/30 05:06:39;;;;;;;3.53;3.22;;;;;;;;;;5040613;28;20033;-59
2021/12/30 05:09:08;;;;;;;3.47;3.17;;;;;;;;;;5041853;28;20164;-59
2021/12/30 05:11:40;;;;;;;4.47;2.92;;;;;;;;;;5039339;28;20065;-59
2021/12/30 05:14:06;;;;;;;3.67;2.80;;;;;;;;;;5039444;28;20116;-59
2021/12/30 05:16:31;;;;;;;4.45;3.75;;;;;;;;;;5041135;28;20132;-59
2021/12/30 05:18:58;;;;;;;7.22;3.33;;;;;;;;;;5038945;28;20098;-59
2021/12/30 05:21:24;;;;;;;3.88;3.40;;;;;;;;;;5040408;28;20463;-59
2021/12/30 05:23:50;;;;;;;2.92;2.63;;;;;;;;;;5041823;28;20064;-60
2021/12/30 05:26:16;;;;;;;3.42;3.13;;;;;;;;;;5037717;28;20060;-59
2021/12/30 05:28:43;;;;;;;3.88;3.47;;;;;;;;;;5040325;28;20099;-59
2021/12/30 05:31:08;;;;;;;4.60;3.55;;;;;;;;;;5040558;28;20036;-59
2021/12/30 05:33:34;;;;;;;3.03;2.72;;;;;;;;;;5040808;28;20546;-59
2021/12/30 05:35:59;;;;;;;3.40;3.10;;;;;;;;;;5039632;28;20236;-59
2021/12/30 05:38:25;;;;;;;3.58;3.28;;;;;;;;;;5039644;28;20028;-59
2021/12/30 05:40:50;;;;;;;3.17;2.88;;;;;;;;;;5040657;28;20033;-59
2021/12/30 05:43:15;;;;;;;3.95;3.60;;;;;;;;;;5039492;28;20044;-58
2021/12/30 05:45:41;;;;;;;3.20;2.90;;;;;;;;;;5039793;28;20029;-58
2021/12/30 05:48:07;;;;;;;4.18;3.03;;;;;;;;;;5042290;28;20025;-58
2021/12/30 05:50:32;;;;;;;3.35;3.05;;;;;;;;;;5038926;28;20041;-59
2021/12/30 05:52:58;;;;;;;3.40;3.10;;;;;;;;;;5040072;28;20458;-59
2021/12/30 05:55:24;;;;;;;3.15;2.85;;;;;;;;;;5039309;28;20076;-59
2021/12/30 05:57:52;;;;;;;3.45;3.15;;;;;;;;;;5036791;28;20037;-59
2021/12/30 06:00:19;;;;;;;4.22;3.42;;;;;;;;;;5039319;28;20026;-58
2021/12/30 06:02:45;;;;;;;3.70;3.25;;;;;;;;;;5040316;28;20036;-58
2021/12/30 06:05:10;;;;;;;3.88;3.42;;;;;;;;;;5036427;28;20044;-58
2021/12/30 06:07:36;;;;;;;3.47;3.17;;;;;;;;;;5038768;28;20034;-59
2021/12/30 06:10:03;;;;;;;3.42;3.13;;;;;;;;;;5036802;28;20036;-59
2021/12/30 06:12:29;;;;;;;4.10;3.70;;;;;;;;;;5037904;28;20112;-59
2021/12/30 06:14:54;;;;;;;3.83;3.53;;;;;;;;;;5038705;28;20115;-60
2021/12/30 06:17:19;;;;;;;3.53;3.22;;;;;;;;;;5039882;28;20087;-58
2021/12/30 06:19:45;;;;;;;3.40;3.05;;;;;;;;;;5038140;28;20028;-59
2021/12/30 06:22:11;;;;;;;3.78;3.38;;;;;;;;;;5039483;28;20682;-59
2021/12/30 06:24:37;;;;;;;3.08;2.78;;;;;;;;;;5039356;28;20137;-60
2021/12/30 06:27:03;;;;;;;3.63;3.33;;;;;;;;;;5042307;28;20104;-59
2021/12/30 06:29:28;;;;;;;3.80;3.40;;;;;;;;;;5035894;28;20157;-59
2021/12/30 06:31:54;;;;;;;3.83;3.42;;;;;;;;;;5039860;28;20043;-59
2021/12/30 06:34:19;;;;;;;3.55;3.25;;;;;;;;;;5040405;28;20125;-60
2021/12/30 06:36:45;;;;;;;4.22;3.83;;;;;;;;;;5042579;28;20120;-59
2021/12/30 06:39:10;;;;;;;3.72;3.35;;;;;;;;;;5038689;28;20394;-59
2021/12/30 06:41:36;;;;;;;4.13;3.15;;;;;;;;;;5037545;28;20065;-59
2021/12/30 06:44:01;;;;;;;3.33;3.03;;;;;;;;;;5036264;28;20104;-59
2021/12/30 06:46:27;;;;;;;3.47;3.17;;;;;;;;;;5038363;28;20115;-63
2021/12/30 06:48:53;;;;;;;3.35;3.05;;;;;;;;;;5037324;28;20032;-62
2021/12/30 06:51:21;;;;;;;3.17;2.88;;;;;;;;;;5038215;28;20029;-62
2021/12/30 06:53:46;;;;;;;3.33;3.03;;;;;;;;;;5037137;28;20413;-63
2021/12/30 06:56:13;;;;;;;4.30;3.38;;;;;;;;;;5036726;28;20117;-62
2021/12/30 06:58:38;;;;;;;3.03;2.72;;;;;;;;;;5040181;28;20075;-63
2021/12/30 07:01:04;;;;;;;3.10;2.80;;;;;;;;;;5039498;28;20057;-63
2021/12/30 07:03:29;;;;;;;3.35;3.05;;;;;;;;;;5037103;28;20021;-62
2021/12/30 07:05:55;;;;;;;3.63;3.33;;;;;;;;;;5040808;28;20127;-63
2021/12/30 07:08:23;;;;;;;3.10;2.80;;;;;;;;;;5038111;28;20098;-63
2021/12/30 07:10:49;;;;;;;3.28;2.97;;;;;;;;;;5036513;28;20032;-64
2021/12/30 07:13:15;;;;;;;3.40;3.10;;;;;;;;;;5038246;28;20475;-63
2021/12/30 07:15:41;;;;;;;3.53;3.22;;;;;;;;;;5038866;28;20108;-63
2021/12/30 07:18:06;;;;;;;3.92;3.55;;;;;;;;;;5038868;28;20485;-64
2021/12/30 07:20:31;;;;;;;3.58;3.28;;;;;;;;;;5035904;28;20033;-65
2021/12/30 07:22:57;;;;;;;3.17;2.88;;;;;;;;;;5039229;28;20048;-65
2021/12/30 07:25:22;;;;;;;3.35;3.05;;;;;;;;;;5043532;28;20040;-64
2021/12/30 07:27:50;;;;;;;5.00;3.25;;;;;;;;;;5037068;28;20017;-63
2021/12/30 07:30:16;;;;;;;3.25;2.95;;;;;;;;;;5036845;28;20063;-66
2021/12/30 07:32:42;;;;;;;3.83;3.35;;;;;;;;;;5034925;28;20037;-65
2021/12/30 07:35:08;;;;;;;4.03;3.63;;;;;;;;;;5035773;28;20673;-65
2021/12/30 07:37:33;;;;;;;3.55;3.25;;;;;;;;;;5037264;28;20102;-66
2021/12/30 07:39:59;;;;;;;3.20;2.90;;;;;;;;;;5035392;28;20033;-65
2021/12/30 07:42:24;;;;;;;3.25;2.95;;;;;;;;;;5038536;28;20029;-66
2021/12/30 07:44:50;;;;;;;3.25;2.95;;;;;;;;;;5037916;28;20155;-66
2021/12/30 07:47:15;;;;;;;3.53;3.03;;;;;;;;;;5042085;28;20044;-64
2021/12/30 07:49:41;;;;;;;3.72;3.22;;;;;;;;;;5041807;28;20037;-64
2021/12/30 07:52:07;;;;;;;3.58;3.28;;;;;;;;;;5042206;28;20029;-64
2021/12/30 07:54:33;;;;;;;4.32;3.38;;;;;;;;;;5042670;28;20048;-63
2021/12/30 07:56:59;;;;;;;4.03;3.63;;;;;;;;;;5043623;28;20047;-63
2021/12/30 07:59:24;;;;;;;3.30;3.00;;;;;;;;;;5036742;28;20033;-64
2021/12/30 08:01:49;;;;;;;3.58;3.28;;;;;;;;;;5041797;28;20360;-63
2021/12/30 08:04:15;;;;;;;3.92;3.40;;;;;;;;;;5041299;28;20036;-64
2021/12/30 08:06:41;;;;;;;3.08;2.78;;;;;;;;;;5043719;28;20035;-63
2021/12/30 08:09:06;;;;;;;3.40;3.10;;;;;;;;;;5041672;28;20033;-66
2021/12/30 08:11:33;;;;;;;3.20;2.90;;;;;;;;;;5040992;28;20020;-60
2021/12/30 08:14:01;;;;;;;3.38;3.08;;;;;;;;;;5038775;28;20528;-60
2021/12/30 08:16:28;;;;;;;3.92;3.53;;;;;;;;;;5041707;28;20053;-60
2021/12/30 08:18:54;;;;;;;3.33;3.03;;;;;;;;;;5035828;28;20036;-60
2021/12/30 08:21:22;;;;;;;3.25;2.90;;;;;;;;;;5039911;28;20490;-60
2021/12/30 08:23:48;;;;;;;3.40;3.10;;;;;;;;;;5045092;28;20060;-60
2021/12/30 08:26:14;;;;;;;3.03;2.70;;;;;;;;;;5042260;28;20089;-60
2021/12/30 08:28:39;;;;;;;3.08;2.78;;;;;;;;;;5040830;28;20029;-60
2021/12/30 08:31:05;;;;;;;2.97;2.67;;;;;;;;;;5042003;28;20026;-58
2021/12/30 08:33:30;;;;;;;3.33;3.03;;;;;;;;;;5041242;28;20037;-63
2021/12/30 08:35:56;;;;;;;3.38;3.08;;;;;;;;;;5042226;28;20037;-60
2021/12/30 08:38:21;;;;;;;3.28;2.97;;;;;;;;;;5039828;28;20026;-60
2021/12/30 08:40:47;;;;;;;3.45;3.15;;;;;;;;;;5039739;28;20448;-60
2021/12/30 08:43:14;;;;;;;3.42;2.60;;;;;;;;;;5040024;28;20160;-60
2021/12/30 08:45:40;;;;;;;4.95;3.33;;;;;;;;;;5041821;28;20037;-60
2021/12/30 08:48:06;;;;;;;3.20;2.90;;;;;;;;;;5043025;28;20027;-60
2021/12/30 08:50:32;;;;;;;3.22;2.92;;;;;;;;;;5039382;28;20049;-58
2021/12/30 08:52:58;;;;;;;2.80;2.40;;;;;;;;;;5040709;28;20100;-60
2021/12/30 08:55:23;;;;;;;2.83;2.42;;;;;;;;;;5041146;28;20378;-59
2021/12/30 08:57:50;;;;;;;2.80;2.50;;;;;;;;;;5037070;28;20033;-59
2021/12/30 09:00:29;;;;;;;3.72;3.33;;;;;;;;;;5039116;28;20029;-59
2021/12/30 09:02:57;;;;;;;4.50;4.10;;;;;;;;;;5039900;28;20033;-60
2021/12/30 09:05:23;;;;;;;3.80;2.70;;;;;;;;;;5037142;28;20033;-60
2021/12/30 09:07:50;;;;;;;3.05;2.75;;;;;;;;;;5038487;28;20032;-59
2021/12/30 09:10:17;;;;;;;3.53;3.22;;;;;;;;;;5041959;28;20390;-59
2021/12/30 09:12:44;;;;;;;3.53;3.22;;;;;;;;;;5042219;28;20602;-59
2021/12/30 09:15:12;;;;;;;2.88;2.58;;;;;;;;;;5040572;28;20087;-59
2021/12/30 09:17:40;;;;;;;3.13;2.83;;;;;;;;;;5040623;28;20029;-61
2021/12/30 09:20:07;;;;;;;3.33;3.03;;;;;;;;;;5037846;28;20108;-60
2021/12/30 09:22:33;;;;;;;3.22;2.92;;;;;;;;;;5042027;28;20026;-59
2021/12/30 09:24:58;;;;;;;3.38;3.08;;;;;;;;;;5044578;28;20040;-60
2021/12/30 09:27:24;;;;;;;3.10;2.78;;;;;;;;;;5040381;28;20021;-60
2021/12/30 09:29:49;;;;;;;3.17;2.88;;;;;;;;;;5039992;28;20032;-59
2021/12/30 09:32:14;;;;;;;3.08;2.78;;;;;;;;;;5039852;28;20430;-59
2021/12/30 09:34:40;;;;;;;3.53;3.22;;;;;;;;;;5040618;28;20610;-59
2021/12/30 09:37:09;;;;;;;3.53;3.22;;;;;;;;;;5038683;28;20033;-59
2021/12/30 09:39:36;;;;;;;3.47;3.17;;;;;;;;;;5037671;28;20051;-62
2021/12/30 09:42:02;;;;;;;3.38;3.08;;;;;;;;;;5043713;28;20486;-62
2021/12/30 09:44:28;;;;;;;3.45;3.15;;;;;;;;;;5040063;28;20082;-63
2021/12/30 09:46:53;;;;;;;3.10;2.80;;;;;;;;;;5042272;28;20059;-63
2021/12/30 09:49:20;;;;;;;3.38;3.08;;;;;;;;;;5037649;28;20037;-62
2021/12/30 09:51:46;;;;;;;3.38;3.08;;;;;;;;;;5039613;28;20021;-63
2021/12/30 09:54:12;;;;;;;3.97;3.38;;;;;;;;;;5039595;28;21383;-63
2021/12/30 09:56:38;;;;;;;3.03;2.72;;;;;;;;;;5034781;28;20046;-63
2021/12/30 09:59:06;;;;;;;3.10;2.80;;;;;;;;;;5041602;28;20033;-63
2021/12/30 10:01:33;;;;;;;3.20;2.90;;;;;;;;;;5037550;28;20163;-63
2021/12/30 10:04:01;;;;;;;3.10;2.80;;;;;;;;;;5039419;28;20067;-63
2021/12/30 10:06:29;;;;;;;3.00;2.70;;;;;;;;;;5040058;28;20037;-63
2021/12/30 10:08:55;;;;;;;3.10;2.80;;;;;;;;;;5039145;28;20040;-63
2021/12/30 10:11:21;;;;;;;3.35;3.05;;;;;;;;;;5040982;28;20371;-63
2021/12/30 10:13:59;;;;;;;3.33;3.03;;;;;;;;;;5038172;28;20041;-62
2021/12/30 10:16:25;;;;;;;3.30;3.00;;;;;;;;;;5039162;28;20025;-63
2021/12/30 10:19:02;;;;;;;4.18;3.58;;;;;;;;;;5035585;28;20033;-63
2021/12/30 10:21:36;;;;;;;3.75;3.45;;;;;;;;;;5039745;28;20033;-62
2021/12/30 10:24:04;;;;;;;3.60;3.30;;;;;;;;;;5037676;28;20118;-62
2021/12/30 10:26:30;;;;;;;3.90;3.60;;;;;;;;;;5039707;28;20071;-61
2021/12/30 10:28:58;;;;;;;6.43;6.00;;;;;;;;;;5035569;28;20122;-63
2021/12/30 10:31:28;;;;;;;4.18;3.88;;;;;;;;;;5037484;28;20044;-62
2021/12/30 10:33:58;;;;;;;4.43;4.03;;;;;;;;;;5035517;28;20070;-62
2021/12/30 10:36:30;;;;;;;4.57;4.18;;;;;;;;;;5040423;28;20049;-62
2021/12/30 10:39:17;;;;;;;3.80;3.50;;;;;;;;;;5038678;28;20144;-62
2021/12/30 10:41:43;;;;;;;4.90;4.50;;;;;;;;;;5037280;28;20029;-63
2021/12/30 10:44:08;;;;;;;4.40;4.10;;;;;;;;;;5036053;28;20262;-62
2021/12/30 10:46:34;;;;;;;6.85;6.35;;;;;;;;;;5039095;28;20100;-63
2021/12/30 10:49:04;;;;;;;7.75;7.25;;;;;;;;;;5037020;28;20029;-63
2021/12/30 10:51:41;;;;;;;8.15;7.65;;;;;;;;;;5041545;28;20108;-63
2021/12/30 10:54:15;;;;;;;7.75;7.25;;;;;;;;;;5038979;28;20028;-63
2021/12/30 10:56:43;;;;;;;8.30;7.80;;;;;;;;;;5044478;28;20057;-62
2021/12/30 10:59:11;;;;;;;5.07;4.68;;;;;;;;;;5038948;28;20486;-62
2021/12/30 11:02:02;;;;;;;4.55;4.10;;;;;;;;;;5038701;28;20033;-62
2021/12/30 11:04:35;;;;;;;5.03;4.63;;;;;;;;;;5038870;28;20040;-62
2021/12/30 11:07:00;;;;;;;5.95;5.55;;;;;;;;;;5040086;28;20094;-62
2021/12/30 11:09:26;;;;;;;5.25;4.85;;;;;;;;;;5037597;28;20025;-62
2021/12/30 11:11:52;;;;;;;3.88;3.58;;;;;;;;;;5038889;28;20486;-63
2021/12/30 11:14:23;;;;;;;5.30;4.90;;;;;;;;;;5039114;28;20096;-63
2021/12/30 11:17:01;;;;;;;4.85;4.45;;;;;;;;;;5038481;28;20141;-63
2021/12/30 11:19:35;;;;;;;4.35;4.00;;;;;;;;;;5038671;28;20032;-63
2021/12/30 11:22:04;;;;;;;5.32;4.93;;;;;;;;;;5042290;28;20394;-63
2021/12/30 11:24:31;;;;;;;4.47;4.07;;;;;;;;;;5043491;28;20358;-63
2021/12/30 11:26:57;;;;;;;4.43;4.10;;;;;;;;;;5040338;28;20064;-63
2021/12/30 11:29:23;;;;;;;4.50;4.15;;;;;;;;;;5042825;28;20033;-62
2021/12/30 11:31:50;;;;;;;4.18;3.88;;;;;;;;;;5040496;28;20060;-62
2021/12/30 11:34:18;;;;;;;5.25;4.85;;;;;;;;;;5037477;28;20048;-63
2021/12/30 11:36:43;;;;;;;5.78;5.38;;;;;;;;;;5044981;28;20084;-63
2021/12/30 11:39:17;;;;;;;5.90;5.50;;;;;;;;;;5042146;28;20056;-63
2021/12/30 11:41:46;;;;;;;5.97;5.57;;;;;;;;;;5040426;28;20414;-62
2021/12/30 11:45:02;;;;;;;5.30;4.90;;;;;;;;;;5040555;28;20025;-62
2021/12/30 11:47:34;;;;;;;6.97;6.47;;;;;;;;;;5018746;28;20025;-63
2021/12/30 11:50:10;;;;;;;5.45;5.05;;;;;;;;;;5015372;28;20128;-62
2021/12/30 11:52:49;;;;;;;5.50;5.10;;;;;;;;;;5032511;28;20107;-59
2021/12/30 11:55:57;;;;;;;5.22;4.82;;;;;;;;;;5040887;28;20033;-59
2021/12/30 11:58:28;;;;;;;5.82;5.43;;;;;;;;;;5026690;28;20116;-59
2021/12/30 12:01:24;;;;;;;6.45;6.00;;;;;;;;;;5041887;28;20087;-60
2021/12/30 12:03:53;;;;;;;6.82;6.32;;;;;;;;;;5042493;28;20558;-59
2021/12/30 12:06:24;;;;;;;6.40;6.00;;;;;;;;;;5041733;28;20036;-59
2021/12/30 12:08:52;;;;;;;7.57;6.88;;;;;;;;;;5041653;28;20028;-59
2021/12/30 12:11:20;;;;;;;7.05;6.55;;;;;;;;;;5042226;28;20029;-59
2021/12/30 12:13:48;;;;;;;6.30;5.82;;;;;;;;;;5040463;28;20024;-59
2021/12/30 12:16:16;;;;;;;7.38;6.88;;;;;;;;;;5044801;28;20027;-59
2021/12/30 12:19:04;;;;;;;6.50;6.00;;;;;;;;;;5042283;28;20417;-59
2021/12/30 12:21:37;;;;;;;6.63;6.15;;;;;;;;;;5044066;28;20025;-59
2021/12/30 12:24:22;;;;;;;5.95;5.53;;;;;;;;;;5040527;28;20017;-59
2021/12/30 12:26:50;;;;;;;5.60;5.18;;;;;;;;;;5045630;28;20040;-59
2021/12/30 12:29:32;;;;;;;6.93;6.30;;;;;;;;;;5042577;28;20459;-60
2021/12/30 12:32:10;;;;;;;5.90;5.45;;;;;;;;;;5047023;28;20036;-58
2021/12/30 12:34:38;;;;;;;5.20;4.80;;;;;;;;;;5043890;28;20052;-58
2021/12/30 12:37:05;;;;;;;5.97;5.50;;;;;;;;;;5039099;28;20086;-58
2021/12/30 12:39:36;;;;;;;5.72;5.28;;;;;;;;;;5043838;28;20799;-58
2021/12/30 12:42:02;;;;;;;6.82;6.32;;;;;;;;;;5041839;28;20037;-57
2021/12/30 12:44:29;;;;;;;6.28;5.78;;;;;;;;;;5049071;28;20102;-58
2021/12/30 12:46:54;;;;;;;5.72;5.32;;;;;;;;;;5041244;28;20108;-57
2021/12/30 12:49:32;;;;;;;6.03;5.60;;;;;;;;;;5040145;28;20143;-59
2021/12/30 12:51:57;;;;;;;6.57;6.07;;;;;;;;;;5055117;28;20029;-57
2021/12/30 12:54:38;;;;;;;6.78;6.28;;;;;;;;;;5041771;28;20097;-58
2021/12/30 12:57:15;;;;;;;7.53;7.03;;;;;;;;;;5037889;28;20497;-58
2021/12/30 12:59:41;;;;;;;6.93;6.45;;;;;;;;;;5039944;28;20498;-58
2021/12/30 13:02:09;;;;;;;7.90;7.40;;;;;;;;;;5040969;28;20514;-58
2021/12/30 13:04:35;;;;;;;7.90;7.40;;;;;;;;;;5038419;28;20131;-57
2021/12/30 13:07:11;;;;;;;6.85;6.35;;;;;;;;;;5036898;28;20029;-57
2021/12/30 13:09:37;;;;;;;7.05;6.55;;;;;;;;;;5040253;28;20552;-58
2021/12/30 13:12:07;;;;;;;6.35;5.95;;;;;;;;;;5042813;28;20375;-58
2021/12/30 13:14:33;;;;;;;6.45;5.95;;;;;;;;;;5042143;28;20095;-58
2021/12/30 13:17:02;;;;;;;7.28;6.78;;;;;;;;;;5041977;28;20041;-58
2021/12/30 13:19:29;;;;;;;7.82;7.32;;;;;;;;;;5040059;28;20059;-58
2021/12/30 13:22:04;;;;;;;6.57;6.13;;;;;;;;;;5037566;28;20032;-58
2021/12/30 13:24:35;;;;;;;6.18;5.78;;;;;;;;;;5039258;28;20362;-58
2021/12/30 13:27:04;;;;;;;6.40;5.90;;;;;;;;;;5037993;28;20526;-58
2021/12/30 13:29:38;;;;;;;6.13;5.72;;;;;;;;;;5040282;28;20596;-58
2021/12/30 13:32:10;;;;;;;7.13;6.63;;;;;;;;;;5037385;28;20144;-58
2021/12/30 13:34:52;;;;;;;6.82;6.35;;;;;;;;;;5036788;28;20044;-58
2021/12/30 13:37:18;;;;;;;6.93;6.43;;;;;;;;;;5038970;28;20029;-58
2021/12/30 13:39:45;;;;;;;6.70;6.22;;;;;;;;;;5039704;28;20489;-58
2021/12/30 13:42:16;;;;;;;7.80;7.20;;;;;;;;;;5036801;28;20414;-57
2021/12/30 13:44:50;;;;;;;8.27;7.75;;;;;;;;;;5041252;28;20037;-57
2021/12/30 13:47:18;;;;;;;6.88;6.38;;;;;;;;;;5041171;28;20029;-58
2021/12/30 13:49:45;;;;;;;6.85;6.35;;;;;;;;;;5039294;28;20084;-58
2021/12/30 13:52:12;;;;;;;7.15;6.65;;;;;;;;;;5036522;28;20080;-58
2021/12/30 13:54:37;;;;;;;7.20;6.70;;;;;;;;;;5036494;28;20033;-58
2021/12/30 13:57:03;;;;;;;6.80;6.30;;;;;;;;;;5038194;28;20777;-58
2021/12/30 13:59:32;;;;;;;6.40;5.97;;;;;;;;;;5036587;28;20033;-58
2021/12/30 14:02:09;;;;;;;5.38;4.97;;;;;;;;;;5037193;28;20032;-57
2021/12/30 14:04:39;;;;;;;4.80;4.40;;;;;;;;;;5037052;28;20048;-58
2021/12/30 14:07:05;;;;;;;5.25;4.85;;;;;;;;;;5037872;28;20064;-57
2021/12/30 14:09:31;;;;;;;5.30;4.90;;;;;;;;;;5038774;28;20068;-57
2021/12/30 14:12:01;;;;;;;6.88;6.38;;;;;;;;;;5024487;28;20475;-57
2021/12/30 14:14:31;;;;;;;5.72;5.32;;;;;;;;;;5040741;28;20662;-57
2021/12/30 14:17:00;;;;;;;5.70;5.30;;;;;;;;;;5039959;28;20095;-58
2021/12/30 14:19:30;;;;;;;6.07;5.65;;;;;;;;;;5040019;28;20322;-58
2021/12/30 14:21:56;;;;;;;6.20;5.80;;;;;;;;;;5037524;28;20079;-58
2021/12/30 14:24:25;;;;;;;6.18;5.78;;;;;;;;;;5039110;28;20485;-58
2021/12/30 14:26:53;;;;;;;4.93;4.53;;;;;;;;;;5038663;28;20028;-58
2021/12/30 14:29:28;;;;;;;5.80;5.40;;;;;;;;;;5038465;28;20107;-58
2021/12/30 14:31:53;;;;;;;5.80;5.40;;;;;;;;;;5038223;28;20120;-59
2021/12/30 14:34:30;;;;;;;5.53;5.13;;;;;;;;;;5038389;28;20100;-58
2021/12/30 14:37:12;;;;;;;5.15;4.75;;;;;;;;;;5040329;28;20029;-58
2021/12/30 14:39:40;;;;;;;4.65;4.25;;;;;;;;;;5036726;28;20037;-58
2021/12/30 14:42:34;;;;;;;5.80;5.40;;;;;;;;;;5045448;28;20428;-58
2021/12/30 14:45:14;;;;;;;5.00;4.60;;;;;;;;;;5038169;28;20029;-58
2021/12/30 14:47:55;;;;;;;4.93;4.53;;;;;;;;;;5037999;28;20032;-58
2021/12/30 14:50:32;;;;;;;5.20;4.80;;;;;;;;;;5040457;28;20128;-59